S/y Unplugged — C6LZ3 — position and weather

sailwx.info

Track history (hours):
 
Tides and Currents Weather Stations Pressure Air Temp Water Temp Dewpoint Dewpoint Depression Visibility Wind Speed Wind Dir Waves Ship Positions

S/y Unplugged

Last reported at 2018-Jun-20 14:29 UTC. Time now 2018-Jun-20 14:55 UTC.
Position N 39°32' E 002°43'.

Length 34 m.

Type: Sailing vessel. MMSI: 308691000.

Date/timePositionNaut miles runAvg speedWind from/ knotsBaromVisibWave heightAir tempDewpointWater temp
2018-Jun-20 14:29N 39°32' E 002°43'0 0.0
2018-Jun-20 13:59N 39°32' E 002°43'0 0.0
2018-Jun-20 13:29N 39°32' E 002°43'0 0.0
2018-Jun-20 12:59N 39°32' E 002°43'0 0.0
2018-Jun-20 12:29N 39°32' E 002°43'0 0.0
2018-Jun-20 11:56N 39°32' E 002°43'0 0.0
2018-Jun-20 11:29N 39°32' E 002°43'0 0.0
2018-Jun-20 10:59N 39°32' E 002°43'0 0.0
2018-Jun-20 10:29N 39°32' E 002°43'0 0.0
2018-Jun-20 09:59N 39°32' E 002°43'2 3.6
2018-Jun-20 09:30N 39°32' E 002°41'3 5.4
2018-Jun-20 08:58N 39°34' E 002°38'0 0.0
2018-Jun-20 08:26N 39°34' E 002°38'0 0.0
2018-Jun-20 08:00N 39°34' E 002°38'0 0.0
2018-Jun-20 07:28N 39°34' E 002°38'0 0.0
2018-Jun-20 06:58N 39°34' E 002°38'0 0.0
2018-Jun-20 06:28N 39°34' E 002°38'0 0.0
2018-Jun-20 05:58N 39°34' E 002°38'0 0.0
2018-Jun-20 05:28N 39°34' E 002°38'0 0.0
2018-Jun-20 04:58N 39°34' E 002°38'0 0.0
2018-Jun-20 04:28N 39°34' E 002°38'0 0.0
2018-Jun-20 03:58N 39°34' E 002°38'0 0.0
2018-Jun-20 03:28N 39°34' E 002°38'0 0.0
2018-Jun-20 02:58N 39°34' E 002°38'0 0.0
2018-Jun-20 02:28N 39°34' E 002°38'0 0.0
2018-Jun-20 01:58N 39°34' E 002°38'0 0.0
2018-Jun-20 01:28N 39°34' E 002°38'0 0.0
2018-Jun-20 00:58N 39°34' E 002°38'0 0.0
2018-Jun-20 00:28N 39°34' E 002°38'0 0.0
2018-Jun-19 23:58N 39°34' E 002°38'0 0.0
2018-Jun-19 23:28N 39°34' E 002°38'0 0.0
2018-Jun-19 22:58N 39°34' E 002°38'0 0.0
2018-Jun-19 22:28N 39°34' E 002°38'0 0.0
2018-Jun-19 21:58N 39°34' E 002°38'0 0.0
2018-Jun-19 21:28N 39°34' E 002°38'0 0.0
2018-Jun-19 20:58N 39°34' E 002°38'0 0.0
2018-Jun-19 20:28N 39°34' E 002°38'0 0.0
2018-Jun-19 19:58N 39°34' E 002°38'0 0.0
2018-Jun-19 19:28N 39°34' E 002°38'0 0.0
2018-Jun-19 18:58N 39°34' E 002°38'0 0.0
2018-Jun-19 18:30N 39°34' E 002°38'0 0.0
2018-Jun-19 17:58N 39°34' E 002°38'0 0.0
2018-Jun-19 17:28N 39°34' E 002°38'0 0.0
2018-Jun-19 16:58N 39°34' E 002°38'0 0.0
2018-Jun-19 16:28N 39°34' E 002°38'0 0.0
2018-Jun-19 15:58N 39°34' E 002°38'0 0.0
2018-Jun-19 15:28N 39°34' E 002°38'0 0.0
2018-Jun-19 14:58N 39°34' E 002°38'0 0.0
2018-Jun-19 14:30N 39°34' E 002°38'0 0.0
2018-Jun-19 13:58N 39°34' E 002°38'0 0.0
2018-Jun-19 13:30N 39°34' E 002°38'0 0.0
2018-Jun-19 12:58N 39°34' E 002°38'0 0.0
2018-Jun-19 12:28N 39°34' E 002°38'0 0.0
2018-Jun-19 11:58N 39°34' E 002°38'0 0.0
2018-Jun-19 11:29N 39°34' E 002°38'0 0.0
2018-Jun-19 10:59N 39°34' E 002°38'0 0.0
2018-Jun-19 10:30N 39°34' E 002°38'3 6.4
2018-Jun-19 10:00N 39°32' E 002°41'1 2.7
2018-Jun-19 09:30N 39°33' E 002°40'1 2.0
2018-Jun-19 09:00N 39°34' E 002°39'1 2.2
2018-Jun-19 08:28N 39°34' E 002°38'0 0.0
2018-Jun-19 07:58N 39°34' E 002°38'0 0.0
2018-Jun-19 07:28N 39°34' E 002°38'0 0.0
2018-Jun-19 06:58N 39°34' E 002°38'0 0.0
2018-Jun-19 06:28N 39°34' E 002°38'0 0.0
2018-Jun-19 05:58N 39°34' E 002°38'0 0.0
2018-Jun-19 05:28N 39°34' E 002°38'0 0.0
2018-Jun-19 04:58N 39°34' E 002°38'0 0.0
2018-Jun-19 04:28N 39°34' E 002°38'0 0.0
2018-Jun-19 03:58N 39°34' E 002°38'0 0.0
2018-Jun-19 03:28N 39°34' E 002°38'0 0.0
2018-Jun-19 02:58N 39°34' E 002°38'0 0.0
2018-Jun-19 02:28N 39°34' E 002°38'0 0.0
2018-Jun-19 01:58N 39°34' E 002°38'0 0.0
2018-Jun-19 01:28N 39°34' E 002°38'0 0.0
2018-Jun-19 01:00N 39°34' E 002°38'0 0.0
2018-Jun-19 00:30N 39°34' E 002°38'0 0.0
2018-Jun-19 00:00N 39°34' E 002°38'0 0.0
2018-Jun-18 23:30N 39°34' E 002°38'0 0.0
2018-Jun-18 23:01N 39°34' E 002°38'0 0.0
2018-Jun-18 22:30N 39°34' E 002°38'0 0.0
2018-Jun-18 22:00N 39°34' E 002°38'0 0.0
2018-Jun-18 21:30N 39°34' E 002°38'0 0.0
2018-Jun-18 21:00N 39°34' E 002°38'0 0.0
2018-Jun-18 20:30N 39°34' E 002°38'0 0.0
2018-Jun-18 20:00N 39°34' E 002°38'0 0.0
2018-Jun-18 19:30N 39°34' E 002°38'0 0.0
2018-Jun-18 19:00N 39°34' E 002°38'0 0.0
2018-Jun-18 18:30N 39°34' E 002°38'0 0.0
2018-Jun-18 18:00N 39°34' E 002°38'0 0.0
2018-Jun-18 17:30N 39°34' E 002°38'0 0.0
2018-Jun-18 17:00N 39°34' E 002°38'0 0.0
2018-Jun-18 16:30N 39°34' E 002°38'0 0.0
2018-Jun-18 16:00N 39°34' E 002°38'0 0.0
2018-Jun-18 15:30N 39°34' E 002°38'0 0.0
2018-Jun-18 15:00N 39°34' E 002°38'0 0.0
2018-Jun-18 14:30N 39°34' E 002°38'0 0.0
2018-Jun-18 14:00N 39°34' E 002°38'0 0.0
2018-Jun-18 13:30N 39°34' E 002°38'0 0.0
2018-Jun-18 13:00N 39°34' E 002°38'0 0.0
2018-Jun-18 12:30N 39°34' E 002°38'0 0.0
2018-Jun-18 12:00N 39°34' E 002°38'0 0.0
2018-Jun-18 11:24N 39°34' E 002°38'0 0.0
2018-Jun-18 11:00N 39°34' E 002°38'0 0.0
2018-Jun-18 10:30N 39°34' E 002°38'0 0.0
2018-Jun-18 10:00N 39°34' E 002°38'0 0.0
2018-Jun-18 09:30N 39°34' E 002°38'0 0.0
2018-Jun-18 09:00N 39°34' E 002°38'0 0.0
2018-Jun-18 08:30N 39°34' E 002°38'0 0.0
2018-Jun-18 08:00N 39°34' E 002°38'0 0.0
2018-Jun-18 07:30N 39°34' E 002°38'0 0.0
2018-Jun-18 07:00N 39°34' E 002°38'0 0.0
2018-Jun-18 06:30N 39°34' E 002°38'0 0.0
2018-Jun-18 06:00N 39°34' E 002°38'0 0.0
2018-Jun-18 05:30N 39°34' E 002°38'0 0.0
2018-Jun-18 05:00N 39°34' E 002°38'0 0.0
2018-Jun-18 04:27N 39°34' E 002°38'0 0.0
2018-Jun-18 04:00N 39°34' E 002°38'0 0.0
2018-Jun-18 03:30N 39°34' E 002°38'0 0.0
2018-Jun-18 03:00N 39°34' E 002°38'0 0.0
2018-Jun-18 02:30N 39°34' E 002°38'0 0.0
2018-Jun-18 02:00N 39°34' E 002°38'0 0.0
2018-Jun-18 01:30N 39°34' E 002°38'0 0.0
2018-Jun-18 01:00N 39°34' E 002°38'0 0.0
2018-Jun-18 00:30N 39°34' E 002°38'0 0.0
2018-Jun-18 00:00N 39°34' E 002°38'0 0.0
2018-Jun-17 23:30N 39°34' E 002°38'0 0.0
2018-Jun-17 23:00N 39°34' E 002°38'0 0.0
2018-Jun-17 22:30N 39°34' E 002°38'0 0.0
2018-Jun-17 22:00N 39°34' E 002°38'0 0.0
2018-Jun-17 21:30N 39°34' E 002°38'0 0.0
2018-Jun-17 21:00N 39°34' E 002°38'0 0.0
2018-Jun-17 20:30N 39°34' E 002°38'0 0.0
2018-Jun-17 20:00N 39°34' E 002°38'0 0.0
2018-Jun-17 19:30N 39°34' E 002°38'0 0.0
2018-Jun-17 19:00N 39°34' E 002°38'0 0.0
2018-Jun-17 18:30N 39°34' E 002°38'0 0.0
2018-Jun-17 18:00N 39°34' E 002°38'0 0.0
2018-Jun-17 17:30N 39°34' E 002°38'0 0.0
2018-Jun-17 17:00N 39°34' E 002°38'0 0.0
2018-Jun-17 16:30N 39°34' E 002°38'0 0.0
2018-Jun-17 16:00N 39°34' E 002°38'0 0.0
2018-Jun-17 15:27N 39°34' E 002°38'0 0.0
2018-Jun-17 15:00N 39°34' E 002°38'0 0.0
2018-Jun-17 14:30N 39°34' E 002°38'0 0.0
2018-Jun-17 14:00N 39°34' E 002°38'0 0.0
2018-Jun-17 13:30N 39°34' E 002°38'0 0.0
2018-Jun-17 13:00N 39°34' E 002°38'0 0.0
2018-Jun-17 12:30N 39°34' E 002°38'0 0.0
2018-Jun-17 12:00N 39°34' E 002°38'0 0.0
2018-Jun-17 11:30N 39°34' E 002°38'0 0.0
2018-Jun-17 11:00N 39°34' E 002°38'0 0.0
2018-Jun-17 10:30N 39°34' E 002°38'0 0.0
2018-Jun-17 10:00N 39°34' E 002°38'0 0.0
2018-Jun-17 09:30N 39°34' E 002°38'0 0.0
2018-Jun-17 09:00N 39°34' E 002°38'0 0.0
2018-Jun-17 08:30N 39°34' E 002°38'0 0.0
2018-Jun-17 08:00N 39°34' E 002°38'0 0.0
2018-Jun-17 07:30N 39°34' E 002°38'0 0.0
2018-Jun-17 06:57N 39°34' E 002°38'0 0.0
2018-Jun-17 06:30N 39°34' E 002°38'0 0.0
2018-Jun-17 05:58N 39°34' E 002°38'0 0.0
2018-Jun-17 05:28N 39°34' E 002°38'0 0.0
2018-Jun-17 04:58N 39°34' E 002°38'0 0.0
2018-Jun-17 04:28N 39°34' E 002°38'0 0.0
2018-Jun-17 03:58N 39°34' E 002°38'0 0.0
2018-Jun-17 03:28N 39°34' E 002°38'0 0.0
2018-Jun-17 02:58N 39°34' E 002°38'0 0.0
2018-Jun-17 02:25N 39°34' E 002°38'0 0.0
2018-Jun-17 01:58N 39°34' E 002°38'0 0.0
2018-Jun-17 01:28N 39°34' E 002°38'0 0.0
2018-Jun-17 00:58N 39°34' E 002°38'0 0.0
2018-Jun-17 00:28N 39°34' E 002°38'0 0.0
2018-Jun-16 23:58N 39°34' E 002°38'0 0.0
2018-Jun-16 23:28N 39°34' E 002°38'0 0.0
2018-Jun-16 22:58N 39°34' E 002°38'0 0.0
2018-Jun-16 22:28N 39°34' E 002°38'0 0.0
2018-Jun-16 21:58N 39°34' E 002°38'0 0.0
2018-Jun-16 21:28N 39°34' E 002°38'0 0.0
2018-Jun-16 20:58N 39°34' E 002°38'0 0.0
2018-Jun-16 20:28N 39°34' E 002°38'0 0.0
2018-Jun-16 19:58N 39°34' E 002°38'0 0.0
2018-Jun-16 19:28N 39°34' E 002°38'0 0.0
2018-Jun-16 18:58N 39°34' E 002°38'0 0.0
2018-Jun-16 18:30N 39°34' E 002°38'0 0.0
2018-Jun-16 18:00N 39°34' E 002°38'0 0.0
2018-Jun-16 17:30N 39°34' E 002°38'0 0.0
2018-Jun-16 17:00N 39°34' E 002°38'0 0.0
2018-Jun-16 16:30N 39°34' E 002°38'0 0.0
2018-Jun-16 16:00N 39°34' E 002°38'0 0.0
2018-Jun-16 15:29N 39°34' E 002°38'0 0.0
2018-Jun-16 14:59N 39°34' E 002°38'0 0.0
2018-Jun-16 14:29N 39°34' E 002°38'0 0.0
2018-Jun-16 13:59N 39°34' E 002°38'0 0.0
2018-Jun-16 13:29N 39°34' E 002°38'0 0.0
2018-Jun-16 12:59N 39°34' E 002°38'0 0.0
2018-Jun-16 12:29N 39°34' E 002°38'0 0.0
2018-Jun-16 12:00N 39°34' E 002°38'0 0.0
2018-Jun-16 11:29N 39°34' E 002°38'0 0.0
2018-Jun-16 11:00N 39°34' E 002°38'0 0.0
2018-Jun-16 10:28N 39°34' E 002°38'0 0.0
2018-Jun-16 09:58N 39°34' E 002°38'0 0.0
2018-Jun-16 09:28N 39°34' E 002°38'0 0.0
2018-Jun-16 08:58N 39°34' E 002°38'0 0.0
2018-Jun-16 08:28N 39°34' E 002°38'0 0.0
2018-Jun-16 07:58N 39°34' E 002°38'0 0.0
2018-Jun-16 07:28N 39°34' E 002°38'0 0.0
2018-Jun-16 06:58N 39°34' E 002°38'0 0.0
2018-Jun-16 06:28N 39°34' E 002°38'0 0.0
2018-Jun-16 05:58N 39°34' E 002°38'0 0.0
2018-Jun-16 05:28N 39°34' E 002°38'0 0.0
2018-Jun-16 04:58N 39°34' E 002°38'0 0.0
2018-Jun-16 04:28N 39°34' E 002°38'0 0.0
2018-Jun-16 03:58N 39°34' E 002°38'0 0.0
2018-Jun-16 03:28N 39°34' E 002°38'0 0.0
2018-Jun-16 02:58N 39°34' E 002°38'0 0.0
2018-Jun-16 02:28N 39°34' E 002°38'0 0.0
2018-Jun-16 01:58N 39°34' E 002°38'0 0.0
2018-Jun-16 01:28N 39°34' E 002°38'0 0.0
2018-Jun-16 00:58N 39°34' E 002°38'0 0.0
2018-Jun-16 00:28N 39°34' E 002°38'0 0.0
2018-Jun-15 23:58N 39°34' E 002°38'0 0.0
2018-Jun-15 23:31N 39°34' E 002°38'0 0.0
2018-Jun-15 23:01N 39°34' E 002°38'0 0.0
2018-Jun-15 22:31N 39°34' E 002°38'0 0.0
2018-Jun-15 22:01N 39°34' E 002°38'0 0.0
2018-Jun-15 21:31N 39°34' E 002°38'0 0.0
2018-Jun-15 21:00N 39°34' E 002°38'0 0.0
2018-Jun-15 20:30N 39°34' E 002°38'0 0.0
2018-Jun-15 20:00N 39°34' E 002°38'0 0.0
2018-Jun-15 19:30N 39°34' E 002°38'0 0.0
2018-Jun-15 19:00N 39°34' E 002°38'0 0.0
2018-Jun-15 18:30N 39°34' E 002°38'0 0.0
2018-Jun-15 18:00N 39°34' E 002°38'0 0.0
2018-Jun-15 17:30N 39°34' E 002°38'0 0.0
2018-Jun-15 17:00N 39°34' E 002°38'0 0.0
2018-Jun-15 16:30N 39°34' E 002°38'0 0.0
2018-Jun-15 15:57N 39°34' E 002°38'0 0.0
2018-Jun-15 15:30N 39°34' E 002°38'0 0.0
2018-Jun-15 15:00N 39°34' E 002°38'0 0.0
2018-Jun-15 14:30N 39°34' E 002°38'0 0.0
2018-Jun-15 13:59N 39°34' E 002°38'0 0.0
2018-Jun-15 13:29N 39°34' E 002°38'0 0.0
2018-Jun-15 12:59N 39°34' E 002°38'0 0.0
2018-Jun-15 11:56N 39°34' E 002°38'0 0.0
2018-Jun-15 11:29N 39°34' E 002°38'0 0.0
2018-Jun-15 10:59N 39°34' E 002°38'0 0.0
2018-Jun-15 10:29N 39°34' E 002°38'0 0.0
2018-Jun-15 09:59N 39°34' E 002°38'0 0.0
2018-Jun-15 09:29N 39°34' E 002°38'0 0.0
2018-Jun-15 08:59N 39°34' E 002°38'0 0.0
2018-Jun-15 08:29N 39°34' E 002°38'0 0.0
2018-Jun-15 07:59N 39°34' E 002°38'0 0.0
2018-Jun-15 07:29N 39°34' E 002°38'0 0.0
2018-Jun-15 06:59N 39°34' E 002°38'0 0.0
2018-Jun-15 06:23N 39°34' E 002°38'0 0.0
2018-Jun-15 05:59N 39°34' E 002°38'0 0.0
2018-Jun-15 05:29N 39°34' E 002°38'0 0.0
2018-Jun-15 04:59N 39°34' E 002°38'0 0.0
2018-Jun-15 04:28N 39°34' E 002°38'0 0.0
2018-Jun-15 03:58N 39°34' E 002°38'0 0.0
2018-Jun-15 03:28N 39°34' E 002°38'0 0.0
2018-Jun-15 02:58N 39°34' E 002°38'0 0.0
2018-Jun-15 02:25N 39°34' E 002°38'0 0.0
2018-Jun-15 01:58N 39°34' E 002°38'0 0.0
2018-Jun-15 01:28N 39°34' E 002°38'0 0.0
2018-Jun-15 00:58N 39°34' E 002°38'0 0.0
2018-Jun-15 00:28N 39°34' E 002°38'0 0.0
2018-Jun-14 23:58N 39°34' E 002°38'0 0.0
2018-Jun-14 23:28N 39°34' E 002°38'0 0.0
2018-Jun-14 22:58N 39°34' E 002°38'0 0.0
2018-Jun-14 22:28N 39°34' E 002°38'0 0.0
2018-Jun-14 21:58N 39°34' E 002°38'0 0.0
2018-Jun-14 21:28N 39°34' E 002°38'0 0.0
2018-Jun-14 20:58N 39°34' E 002°38'0 0.0
2018-Jun-14 20:28N 39°34' E 002°38'0 0.0
2018-Jun-14 19:58N 39°34' E 002°38'0 0.0
2018-Jun-14 19:28N 39°34' E 002°38'0 0.0
2018-Jun-14 18:58N 39°34' E 002°38'0 0.0
2018-Jun-14 18:28N 39°34' E 002°38'0 0.0
2018-Jun-14 17:58N 39°34' E 002°38'0 0.0
2018-Jun-14 17:28N 39°34' E 002°38'0 0.0
2018-Jun-14 16:58N 39°34' E 002°38'0 0.0
2018-Jun-14 16:25N 39°34' E 002°38'0 0.0
2018-Jun-14 15:58N 39°34' E 002°38'0 0.0
2018-Jun-14 15:28N 39°34' E 002°38'0 0.0
2018-Jun-14 14:58N 39°34' E 002°38'0 0.0
2018-Jun-14 14:28N 39°34' E 002°38'0 0.0
2018-Jun-14 13:58N 39°34' E 002°38'0 0.0
2018-Jun-14 13:28N 39°34' E 002°38'0 0.0
2018-Jun-14 12:58N 39°34' E 002°38'0 0.0
2018-Jun-14 12:28N 39°34' E 002°38'0 0.0
2018-Jun-14 11:58N 39°34' E 002°38'0 0.0
2018-Jun-14 11:30N 39°34' E 002°38'0 0.0
2018-Jun-14 11:00N 39°34' E 002°38'0 0.0
2018-Jun-14 10:30N 39°34' E 002°38'0 0.0
2018-Jun-14 10:00N 39°34' E 002°38'0 0.0
2018-Jun-14 09:30N 39°34' E 002°38'0 0.0
2018-Jun-14 09:00N 39°34' E 002°38'0 0.0
2018-Jun-14 08:30N 39°34' E 002°38'0 0.0
2018-Jun-14 08:00N 39°34' E 002°38'0 0.0
2018-Jun-14 07:30N 39°34' E 002°38'0 0.0
2018-Jun-14 07:00N 39°34' E 002°38'0 0.0
2018-Jun-14 06:30N 39°34' E 002°38'0 0.0
2018-Jun-14 06:00N 39°34' E 002°38'0 0.0
2018-Jun-14 05:30N 39°34' E 002°38'0 0.0
2018-Jun-14 04:59N 39°34' E 002°38'0 0.0
2018-Jun-14 04:29N 39°34' E 002°38'0 0.0
2018-Jun-14 03:59N 39°34' E 002°38'0 0.0
2018-Jun-14 03:29N 39°34' E 002°38'0 0.0
2018-Jun-14 03:00N 39°34' E 002°38'0 0.0
2018-Jun-14 02:29N 39°34' E 002°38'0 0.0
2018-Jun-14 01:59N 39°34' E 002°38'0 0.0
2018-Jun-14 01:29N 39°34' E 002°38'0 0.0
2018-Jun-14 00:59N 39°34' E 002°38'0 0.0
2018-Jun-14 00:29N 39°34' E 002°38'0 0.0
2018-Jun-13 23:59N 39°34' E 002°38'0 0.0
2018-Jun-13 23:29N 39°34' E 002°38'0 0.0
2018-Jun-13 22:59N 39°34' E 002°38'0 0.0
2018-Jun-13 22:29N 39°34' E 002°38'0 0.0
2018-Jun-13 21:59N 39°34' E 002°38'0 0.0
2018-Jun-13 21:29N 39°34' E 002°38'0 0.0
2018-Jun-13 20:59N 39°34' E 002°38'0 0.0
2018-Jun-13 20:29N 39°34' E 002°38'0 0.0
2018-Jun-13 19:59N 39°34' E 002°38'0 0.0
2018-Jun-13 19:29N 39°34' E 002°38'0 0.0
2018-Jun-13 18:59N 39°34' E 002°38'0 0.0
2018-Jun-13 18:29N 39°34' E 002°38'0 0.0
2018-Jun-13 17:59N 39°34' E 002°38'0 0.0
2018-Jun-13 17:29N 39°34' E 002°38'0 0.0
2018-Jun-13 16:59N 39°34' E 002°38'0 0.0
2018-Jun-13 16:30N 39°34' E 002°38'0 0.0
2018-Jun-13 16:00N 39°34' E 002°38'0 0.0
2018-Jun-13 15:29N 39°34' E 002°38'0 0.0
2018-Jun-13 14:59N 39°34' E 002°38'0 0.0
2018-Jun-13 14:29N 39°34' E 002°38'0 0.0
2018-Jun-13 13:59N 39°34' E 002°38'0 0.0
2018-Jun-13 13:29N 39°34' E 002°38'0 0.0
2018-Jun-13 13:00N 39°34' E 002°38'0 0.0
2018-Jun-13 12:30N 39°34' E 002°38'0 0.0
2018-Jun-13 11:59N 39°34' E 002°38'0 0.0
2018-Jun-13 11:29N 39°34' E 002°38'0 0.0
2018-Jun-13 11:00N 39°34' E 002°38'0 0.0
2018-Jun-13 10:30N 39°34' E 002°38'0 0.0
2018-Jun-13 09:59N 39°34' E 002°38'0 0.0
2018-Jun-13 09:29N 39°34' E 002°38'0 0.0
2018-Jun-13 08:59N 39°34' E 002°38'0 0.0
2018-Jun-13 08:29N 39°34' E 002°38'0 0.0
2018-Jun-13 07:59N 39°34' E 002°38'0 0.0
2018-Jun-13 07:29N 39°34' E 002°38'0 0.0
2018-Jun-13 06:59N 39°34' E 002°38'0 0.0
2018-Jun-13 06:29N 39°34' E 002°38'0 0.0
2018-Jun-13 05:59N 39°34' E 002°38'0 0.0
2018-Jun-13 05:29N 39°34' E 002°38'0 0.0
2018-Jun-13 04:59N 39°34' E 002°38'0 0.0
2018-Jun-13 04:29N 39°34' E 002°38'0 0.0
2018-Jun-13 03:59N 39°34' E 002°38'0 0.0
2018-Jun-13 03:29N 39°34' E 002°38'0 0.0
2018-Jun-13 02:59N 39°34' E 002°38'0 0.0
2018-Jun-13 02:29N 39°34' E 002°38'0 0.0
2018-Jun-13 01:59N 39°34' E 002°38'0 0.0
2018-Jun-13 01:29N 39°34' E 002°38'0 0.0
2018-Jun-13 00:59N 39°34' E 002°38'0 0.0
2018-Jun-13 00:29N 39°34' E 002°38'0 0.0
2018-Jun-12 23:59N 39°34' E 002°38'0 0.0
2018-Jun-12 23:29N 39°34' E 002°38'0 0.0
2018-Jun-12 22:59N 39°34' E 002°38'0 0.0
2018-Jun-12 22:29N 39°34' E 002°38'0 0.0
2018-Jun-12 21:59N 39°34' E 002°38'0 0.0
2018-Jun-12 21:29N 39°34' E 002°38'0 0.0
2018-Jun-12 20:59N 39°34' E 002°38'0 0.0
2018-Jun-12 20:29N 39°34' E 002°38'0 0.0
2018-Jun-12 19:59N 39°34' E 002°38'0 0.0
2018-Jun-12 19:29N 39°34' E 002°38'0 0.0
2018-Jun-12 18:47N 39°34' E 002°38'0 0.0
2018-Jun-12 18:29N 39°34' E 002°38'0 0.0
2018-Jun-12 17:59N 39°34' E 002°38'0 0.0
2018-Jun-12 17:29N 39°34' E 002°38'0 0.0
2018-Jun-12 16:58N 39°34' E 002°38'0 0.0
2018-Jun-12 16:28N 39°34' E 002°38'0 0.0
2018-Jun-12 15:58N 39°34' E 002°38'0 0.0
2018-Jun-12 15:28N 39°34' E 002°38'0 0.0
2018-Jun-12 14:57N 39°34' E 002°38'0 0.0
2018-Jun-12 14:29N 39°34' E 002°38'0 0.0
2018-Jun-12 13:59N 39°34' E 002°38'0 0.0
2018-Jun-12 13:29N 39°34' E 002°38'0 0.0
2018-Jun-12 12:59N 39°34' E 002°38'0 0.0
2018-Jun-12 12:29N 39°34' E 002°38'0 0.0
2018-Jun-12 11:59N 39°34' E 002°38'0 0.0
2018-Jun-12 11:29N 39°34' E 002°38'0 0.0
2018-Jun-12 10:59N 39°34' E 002°38'0 0.0
2018-Jun-12 10:29N 39°34' E 002°38'0 0.0
2018-Jun-12 09:59N 39°34' E 002°38'0 0.0
2018-Jun-12 09:29N 39°34' E 002°38'0 0.0
2018-Jun-12 08:59N 39°34' E 002°38'0 0.0
2018-Jun-12 08:29N 39°34' E 002°38'0 0.0
2018-Jun-12 07:59N 39°34' E 002°38'0 0.0
2018-Jun-12 07:29N 39°34' E 002°38'0 0.0
2018-Jun-12 06:59N 39°34' E 002°38'0 0.0
2018-Jun-12 06:29N 39°34' E 002°38'0 0.0
2018-Jun-12 05:59N 39°34' E 002°38'0 0.0
2018-Jun-12 05:29N 39°34' E 002°38'0 0.0
2018-Jun-12 04:59N 39°34' E 002°38'0 0.0
2018-Jun-12 04:29N 39°34' E 002°38'0 0.0
2018-Jun-12 03:59N 39°34' E 002°38'0 0.0
2018-Jun-12 03:29N 39°34' E 002°38'0 0.0
2018-Jun-12 02:59N 39°34' E 002°38'0 0.0
2018-Jun-12 02:29N 39°34' E 002°38'0 0.0
2018-Jun-12 01:59N 39°34' E 002°38'0 0.0
2018-Jun-12 01:29N 39°34' E 002°38'0 0.0
2018-Jun-12 00:59N 39°34' E 002°38'0 0.0
2018-Jun-12 00:29N 39°34' E 002°38'0 0.0
2018-Jun-11 23:59N 39°34' E 002°38'0 0.0
2018-Jun-11 23:29N 39°34' E 002°38'0 0.0
2018-Jun-11 22:59N 39°34' E 002°38'0 0.0
2018-Jun-11 22:29N 39°34' E 002°38'0 0.0
2018-Jun-11 21:59N 39°34' E 002°38'0 0.0
2018-Jun-11 21:29N 39°34' E 002°38'0 0.0
2018-Jun-11 20:56N 39°34' E 002°38'0 0.0
2018-Jun-11 20:29N 39°34' E 002°38'0 0.0
2018-Jun-11 19:59N 39°34' E 002°38'0 0.0
2018-Jun-11 19:29N 39°34' E 002°38'0 0.0
2018-Jun-11 18:59N 39°34' E 002°38'0 0.0
2018-Jun-11 18:29N 39°34' E 002°38'0 0.0
2018-Jun-11 17:59N 39°34' E 002°38'0 0.0
2018-Jun-11 17:29N 39°34' E 002°38'0 0.0
2018-Jun-11 16:59N 39°34' E 002°38'0 0.0
2018-Jun-11 16:29N 39°34' E 002°38'0 0.0
2018-Jun-11 15:59N 39°34' E 002°38'0 0.0
2018-Jun-11 15:29N 39°34' E 002°38'0 0.0
2018-Jun-11 14:59N 39°34' E 002°38'0 0.0
2018-Jun-11 14:29N 39°34' E 002°38'0 0.0
2018-Jun-11 13:59N 39°34' E 002°38'0 0.0
2018-Jun-11 13:29N 39°34' E 002°38'0 0.0
2018-Jun-11 12:59N 39°34' E 002°38'0 0.0
2018-Jun-11 12:29N 39°34' E 002°38'0 0.0
2018-Jun-11 11:59N 39°34' E 002°38'0 0.0
2018-Jun-11 11:29N 39°34' E 002°38'0 0.0
2018-Jun-11 10:59N 39°34' E 002°38'0 0.0
2018-Jun-11 10:29N 39°34' E 002°38'0 0.0
2018-Jun-11 09:59N 39°34' E 002°38'0 0.0
2018-Jun-11 09:29N 39°34' E 002°38'0 0.0
2018-Jun-11 08:59N 39°34' E 002°38'0 0.0
2018-Jun-11 08:29N 39°34' E 002°38'0 0.0
2018-Jun-11 08:00N 39°34' E 002°38'0 0.0
2018-Jun-11 07:21N 39°34' E 002°38'0 0.0
2018-Jun-11 07:00N 39°34' E 002°38'0 0.0
2018-Jun-11 06:30N 39°34' E 002°38'0 0.0
2018-Jun-11 06:00N 39°34' E 002°38'0 0.0
2018-Jun-11 05:30N 39°34' E 002°38'0 0.0
2018-Jun-11 05:00N 39°34' E 002°38'0 0.0
2018-Jun-11 04:30N 39°34' E 002°38'0 0.0
2018-Jun-11 04:00N 39°34' E 002°38'0 0.0
2018-Jun-11 03:30N 39°34' E 002°38'0 0.0
2018-Jun-11 03:00N 39°34' E 002°38'0 0.0
2018-Jun-11 02:30N 39°34' E 002°38'0 0.0
2018-Jun-11 02:00N 39°34' E 002°38'0 0.0
2018-Jun-11 01:30N 39°34' E 002°38'0 0.0
2018-Jun-11 01:00N 39°34' E 002°38'0 0.0
2018-Jun-11 00:30N 39°34' E 002°38'0 0.0
2018-Jun-11 00:00N 39°34' E 002°38'0 0.0
2018-Jun-10 23:30N 39°34' E 002°38'0 0.0
2018-Jun-10 23:00N 39°34' E 002°38'0 0.0
2018-Jun-10 22:30N 39°34' E 002°38'0 0.0
2018-Jun-10 22:00N 39°34' E 002°38'0 0.0
2018-Jun-10 21:30N 39°34' E 002°38'0 0.0
2018-Jun-10 21:00N 39°34' E 002°38'0 0.0
2018-Jun-10 20:30N 39°34' E 002°38'0 0.0
2018-Jun-10 20:00N 39°34' E 002°38'0 0.0
2018-Jun-10 19:30N 39°34' E 002°38'0 0.0
2018-Jun-10 19:00N 39°34' E 002°38'0 0.0
2018-Jun-10 18:27N 39°34' E 002°38'0 0.0
2018-Jun-10 18:00N 39°34' E 002°38'0 0.0
2018-Jun-10 17:30N 39°34' E 002°38'0 0.0
2018-Jun-10 17:00N 39°34' E 002°38'0 0.0
2018-Jun-10 16:30N 39°34' E 002°38'0 0.0
2018-Jun-10 16:00N 39°34' E 002°38'0 0.0
2018-Jun-10 15:30N 39°34' E 002°38'0 0.0
2018-Jun-10 15:00N 39°34' E 002°38'0 0.0
2018-Jun-10 14:30N 39°34' E 002°38'  
Track history (hours):
 
Tides and Currents Weather Stations Pressure Air Temp Water Temp Dewpoint Dewpoint Depression Visibility Wind Speed Wind Dir Waves Ship Positions

S/y Unplugged

Last reported at 2018-Jun-20 14:29 UTC. Time now 2018-Jun-20 14:55 UTC.
Position N 39°32' E 002°43'.

Length 34 m.

Type: Sailing vessel. MMSI: 308691000.

Date/timePositionNaut miles runAvg speedWind from/ knotsBaromVisibWave heightAir tempDewpointWater temp
2018-Jun-20 14:29N 39°32' E 002°43'0 0.0
2018-Jun-20 13:59N 39°32' E 002°43'0 0.0
2018-Jun-20 13:29N 39°32' E 002°43'0 0.0
2018-Jun-20 12:59N 39°32' E 002°43'0 0.0
2018-Jun-20 12:29N 39°32' E 002°43'0 0.0
2018-Jun-20 11:56N 39°32' E 002°43'0 0.0
2018-Jun-20 11:29N 39°32' E 002°43'0 0.0
2018-Jun-20 10:59N 39°32' E 002°43'0 0.0
2018-Jun-20 10:29N 39°32' E 002°43'0 0.0
2018-Jun-20 09:59N 39°32' E 002°43'2 3.6
2018-Jun-20 09:30N 39°32' E 002°41'3 5.4
2018-Jun-20 08:58N 39°34' E 002°38'0 0.0
2018-Jun-20 08:26N 39°34' E 002°38'0 0.0
2018-Jun-20 08:00N 39°34' E 002°38'0 0.0
2018-Jun-20 07:28N 39°34' E 002°38'0 0.0
2018-Jun-20 06:58N 39°34' E 002°38'0 0.0
2018-Jun-20 06:28N 39°34' E 002°38'0 0.0
2018-Jun-20 05:58N 39°34' E 002°38'0 0.0
2018-Jun-20 05:28N 39°34' E 002°38'0 0.0
2018-Jun-20 04:58N 39°34' E 002°38'0 0.0
2018-Jun-20 04:28N 39°34' E 002°38'0 0.0
2018-Jun-20 03:58N 39°34' E 002°38'0 0.0
2018-Jun-20 03:28N 39°34' E 002°38'0 0.0
2018-Jun-20 02:58N 39°34' E 002°38'0 0.0
2018-Jun-20 02:28N 39°34' E 002°38'0 0.0
2018-Jun-20 01:58N 39°34' E 002°38'0 0.0
2018-Jun-20 01:28N 39°34' E 002°38'0 0.0
2018-Jun-20 00:58N 39°34' E 002°38'0 0.0
2018-Jun-20 00:28N 39°34' E 002°38'0 0.0
2018-Jun-19 23:58N 39°34' E 002°38'0 0.0
2018-Jun-19 23:28N 39°34' E 002°38'0 0.0
2018-Jun-19 22:58N 39°34' E 002°38'0 0.0
2018-Jun-19 22:28N 39°34' E 002°38'0 0.0
2018-Jun-19 21:58N 39°34' E 002°38'0 0.0
2018-Jun-19 21:28N 39°34' E 002°38'0 0.0
2018-Jun-19 20:58N 39°34' E 002°38'0 0.0
2018-Jun-19 20:28N 39°34' E 002°38'0 0.0
2018-Jun-19 19:58N 39°34' E 002°38'0 0.0
2018-Jun-19 19:28N 39°34' E 002°38'0 0.0
2018-Jun-19 18:58N 39°34' E 002°38'0 0.0
2018-Jun-19 18:30N 39°34' E 002°38'0 0.0
2018-Jun-19 17:58N 39°34' E 002°38'0 0.0
2018-Jun-19 17:28N 39°34' E 002°38'0 0.0
2018-Jun-19 16:58N 39°34' E 002°38'0 0.0
2018-Jun-19 16:28N 39°34' E 002°38'0 0.0
2018-Jun-19 15:58N 39°34' E 002°38'0 0.0
2018-Jun-19 15:28N 39°34' E 002°38'0 0.0
2018-Jun-19 14:58N 39°34' E 002°38'0 0.0
2018-Jun-19 14:30N 39°34' E 002°38'0 0.0
2018-Jun-19 13:58N 39°34' E 002°38'0 0.0
2018-Jun-19 13:30N 39°34' E 002°38'0 0.0
2018-Jun-19 12:58N 39°34' E 002°38'0 0.0
2018-Jun-19 12:28N 39°34' E 002°38'0 0.0
2018-Jun-19 11:58N 39°34' E 002°38'0 0.0
2018-Jun-19 11:29N 39°34' E 002°38'0 0.0
2018-Jun-19 10:59N 39°34' E 002°38'0 0.0
2018-Jun-19 10:30N 39°34' E 002°38'3 6.4
2018-Jun-19 10:00N 39°32' E 002°41'1 2.7
2018-Jun-19 09:30N 39°33' E 002°40'1 2.0
2018-Jun-19 09:00N 39°34' E 002°39'1 2.2
2018-Jun-19 08:28N 39°34' E 002°38'0 0.0
2018-Jun-19 07:58N 39°34' E 002°38'0 0.0
2018-Jun-19 07:28N 39°34' E 002°38'0 0.0
2018-Jun-19 06:58N 39°34' E 002°38'0 0.0
2018-Jun-19 06:28N 39°34' E 002°38'0 0.0
2018-Jun-19 05:58N 39°34' E 002°38'0 0.0
2018-Jun-19 05:28N 39°34' E 002°38'0 0.0
2018-Jun-19 04:58N 39°34' E 002°38'0 0.0
2018-Jun-19 04:28N 39°34' E 002°38'0 0.0
2018-Jun-19 03:58N 39°34' E 002°38'0 0.0
2018-Jun-19 03:28N 39°34' E 002°38'0 0.0
2018-Jun-19 02:58N 39°34' E 002°38'0 0.0
2018-Jun-19 02:28N 39°34' E 002°38'0 0.0
2018-Jun-19 01:58N 39°34' E 002°38'0 0.0
2018-Jun-19 01:28N 39°34' E 002°38'0 0.0
2018-Jun-19 01:00N 39°34' E 002°38'0 0.0
2018-Jun-19 00:30N 39°34' E 002°38'0 0.0
2018-Jun-19 00:00N 39°34' E 002°38'0 0.0
2018-Jun-18 23:30N 39°34' E 002°38'0 0.0
2018-Jun-18 23:01N 39°34' E 002°38'0 0.0
2018-Jun-18 22:30N 39°34' E 002°38'0 0.0
2018-Jun-18 22:00N 39°34' E 002°38'0 0.0
2018-Jun-18 21:30N 39°34' E 002°38'0 0.0
2018-Jun-18 21:00N 39°34' E 002°38'0 0.0
2018-Jun-18 20:30N 39°34' E 002°38'0 0.0
2018-Jun-18 20:00N 39°34' E 002°38'0 0.0
2018-Jun-18 19:30N 39°34' E 002°38'0 0.0
2018-Jun-18 19:00N 39°34' E 002°38'0 0.0
2018-Jun-18 18:30N 39°34' E 002°38'0 0.0
2018-Jun-18 18:00N 39°34' E 002°38'0 0.0
2018-Jun-18 17:30N 39°34' E 002°38'0 0.0
2018-Jun-18 17:00N 39°34' E 002°38'0 0.0
2018-Jun-18 16:30N 39°34' E 002°38'0 0.0
2018-Jun-18 16:00N 39°34' E 002°38'0 0.0
2018-Jun-18 15:30N 39°34' E 002°38'0 0.0
2018-Jun-18 15:00N 39°34' E 002°38'0 0.0
2018-Jun-18 14:30N 39°34' E 002°38'0 0.0
2018-Jun-18 14:00N 39°34' E 002°38'0 0.0
2018-Jun-18 13:30N 39°34' E 002°38'0 0.0
2018-Jun-18 13:00N 39°34' E 002°38'0 0.0
2018-Jun-18 12:30N 39°34' E 002°38'0 0.0
2018-Jun-18 12:00N 39°34' E 002°38'0 0.0
2018-Jun-18 11:24N 39°34' E 002°38'0 0.0
2018-Jun-18 11:00N 39°34' E 002°38'0 0.0
2018-Jun-18 10:30N 39°34' E 002°38'0 0.0
2018-Jun-18 10:00N 39°34' E 002°38'0 0.0
2018-Jun-18 09:30N 39°34' E 002°38'0 0.0
2018-Jun-18 09:00N 39°34' E 002°38'0 0.0
2018-Jun-18 08:30N 39°34' E 002°38'0 0.0
2018-Jun-18 08:00N 39°34' E 002°38'0 0.0
2018-Jun-18 07:30N 39°34' E 002°38'0 0.0
2018-Jun-18 07:00N 39°34' E 002°38'0 0.0
2018-Jun-18 06:30N 39°34' E 002°38'0 0.0
2018-Jun-18 06:00N 39°34' E 002°38'0 0.0
2018-Jun-18 05:30N 39°34' E 002°38'0 0.0
2018-Jun-18 05:00N 39°34' E 002°38'0 0.0
2018-Jun-18 04:27N 39°34' E 002°38'0 0.0
2018-Jun-18 04:00N 39°34' E 002°38'0 0.0
2018-Jun-18 03:30N 39°34' E 002°38'0 0.0
2018-Jun-18 03:00N 39°34' E 002°38'0 0.0
2018-Jun-18 02:30N 39°34' E 002°38'0 0.0
2018-Jun-18 02:00N 39°34' E 002°38'0 0.0
2018-Jun-18 01:30N 39°34' E 002°38'0 0.0
2018-Jun-18 01:00N 39°34' E 002°38'0 0.0
2018-Jun-18 00:30N 39°34' E 002°38'0 0.0
2018-Jun-18 00:00N 39°34' E 002°38'0 0.0
2018-Jun-17 23:30N 39°34' E 002°38'0 0.0
2018-Jun-17 23:00N 39°34' E 002°38'0 0.0
2018-Jun-17 22:30N 39°34' E 002°38'0 0.0
2018-Jun-17 22:00N 39°34' E 002°38'0 0.0
2018-Jun-17 21:30N 39°34' E 002°38'0 0.0
2018-Jun-17 21:00N 39°34' E 002°38'0 0.0
2018-Jun-17 20:30N 39°34' E 002°38'0 0.0
2018-Jun-17 20:00N 39°34' E 002°38'0 0.0
2018-Jun-17 19:30N 39°34' E 002°38'0 0.0
2018-Jun-17 19:00N 39°34' E 002°38'0 0.0
2018-Jun-17 18:30N 39°34' E 002°38'0 0.0
2018-Jun-17 18:00N 39°34' E 002°38'0 0.0
2018-Jun-17 17:30N 39°34' E 002°38'0 0.0
2018-Jun-17 17:00N 39°34' E 002°38'0 0.0
2018-Jun-17 16:30N 39°34' E 002°38'0 0.0
2018-Jun-17 16:00N 39°34' E 002°38'0 0.0
2018-Jun-17 15:27N 39°34' E 002°38'0 0.0
2018-Jun-17 15:00N 39°34' E 002°38'0 0.0
2018-Jun-17 14:30N 39°34' E 002°38'0 0.0
2018-Jun-17 14:00N 39°34' E 002°38'0 0.0
2018-Jun-17 13:30N 39°34' E 002°38'0 0.0
2018-Jun-17 13:00N 39°34' E 002°38'0 0.0
2018-Jun-17 12:30N 39°34' E 002°38'0 0.0
2018-Jun-17 12:00N 39°34' E 002°38'0 0.0
2018-Jun-17 11:30N 39°34' E 002°38'0 0.0
2018-Jun-17 11:00N 39°34' E 002°38'0 0.0
2018-Jun-17 10:30N 39°34' E 002°38'0 0.0
2018-Jun-17 10:00N 39°34' E 002°38'0 0.0
2018-Jun-17 09:30N 39°34' E 002°38'0 0.0
2018-Jun-17 09:00N 39°34' E 002°38'0 0.0
2018-Jun-17 08:30N 39°34' E 002°38'0 0.0
2018-Jun-17 08:00N 39°34' E 002°38'0 0.0
2018-Jun-17 07:30N 39°34' E 002°38'0 0.0
2018-Jun-17 06:57N 39°34' E 002°38'0 0.0
2018-Jun-17 06:30N 39°34' E 002°38'0 0.0
2018-Jun-17 05:58N 39°34' E 002°38'0 0.0
2018-Jun-17 05:28N 39°34' E 002°38'0 0.0
2018-Jun-17 04:58N 39°34' E 002°38'0 0.0
2018-Jun-17 04:28N 39°34' E 002°38'0 0.0
2018-Jun-17 03:58N 39°34' E 002°38'0 0.0
2018-Jun-17 03:28N 39°34' E 002°38'0 0.0
2018-Jun-17 02:58N 39°34' E 002°38'0 0.0
2018-Jun-17 02:25N 39°34' E 002°38'0 0.0
2018-Jun-17 01:58N 39°34' E 002°38'0 0.0
2018-Jun-17 01:28N 39°34' E 002°38'0 0.0
2018-Jun-17 00:58N 39°34' E 002°38'0 0.0
2018-Jun-17 00:28N 39°34' E 002°38'0 0.0
2018-Jun-16 23:58N 39°34' E 002°38'0 0.0
2018-Jun-16 23:28N 39°34' E 002°38'0 0.0
2018-Jun-16 22:58N 39°34' E 002°38'0 0.0
2018-Jun-16 22:28N 39°34' E 002°38'0 0.0
2018-Jun-16 21:58N 39°34' E 002°38'0 0.0
2018-Jun-16 21:28N 39°34' E 002°38'0 0.0
2018-Jun-16 20:58N 39°34' E 002°38'0 0.0
2018-Jun-16 20:28N 39°34' E 002°38'0 0.0
2018-Jun-16 19:58N 39°34' E 002°38'0 0.0
2018-Jun-16 19:28N 39°34' E 002°38'0 0.0
2018-Jun-16 18:58N 39°34' E 002°38'0 0.0
2018-Jun-16 18:30N 39°34' E 002°38'0 0.0
2018-Jun-16 18:00N 39°34' E 002°38'0 0.0
2018-Jun-16 17:30N 39°34' E 002°38'0 0.0
2018-Jun-16 17:00N 39°34' E 002°38'0 0.0
2018-Jun-16 16:30N 39°34' E 002°38'0 0.0
2018-Jun-16 16:00N 39°34' E 002°38'0 0.0
2018-Jun-16 15:29N 39°34' E 002°38'0 0.0
2018-Jun-16 14:59N 39°34' E 002°38'0 0.0
2018-Jun-16 14:29N 39°34' E 002°38'0 0.0
2018-Jun-16 13:59N 39°34' E 002°38'0 0.0
2018-Jun-16 13:29N 39°34' E 002°38'0 0.0
2018-Jun-16 12:59N 39°34' E 002°38'0 0.0
2018-Jun-16 12:29N 39°34' E 002°38'0 0.0
2018-Jun-16 12:00N 39°34' E 002°38'0 0.0
2018-Jun-16 11:29N 39°34' E 002°38'0 0.0
2018-Jun-16 11:00N 39°34' E 002°38'0 0.0
2018-Jun-16 10:28N 39°34' E 002°38'0 0.0
2018-Jun-16 09:58N 39°34' E 002°38'0 0.0
2018-Jun-16 09:28N 39°34' E 002°38'0 0.0
2018-Jun-16 08:58N 39°34' E 002°38'0 0.0
2018-Jun-16 08:28N 39°34' E 002°38'0 0.0
2018-Jun-16 07:58N 39°34' E 002°38'0 0.0
2018-Jun-16 07:28N 39°34' E 002°38'0 0.0
2018-Jun-16 06:58N 39°34' E 002°38'0 0.0
2018-Jun-16 06:28N 39°34' E 002°38'0 0.0
2018-Jun-16 05:58N 39°34' E 002°38'0 0.0
2018-Jun-16 05:28N 39°34' E 002°38'0 0.0
2018-Jun-16 04:58N 39°34' E 002°38'0 0.0
2018-Jun-16 04:28N 39°34' E 002°38'0 0.0
2018-Jun-16 03:58N 39°34' E 002°38'0 0.0
2018-Jun-16 03:28N 39°34' E 002°38'0 0.0
2018-Jun-16 02:58N 39°34' E 002°38'0 0.0
2018-Jun-16 02:28N 39°34' E 002°38'0 0.0
2018-Jun-16 01:58N 39°34' E 002°38'0 0.0
2018-Jun-16 01:28N 39°34' E 002°38'0 0.0
2018-Jun-16 00:58N 39°34' E 002°38'0 0.0
2018-Jun-16 00:28N 39°34' E 002°38'0 0.0
2018-Jun-15 23:58N 39°34' E 002°38'0 0.0
2018-Jun-15 23:31N 39°34' E 002°38'0 0.0
2018-Jun-15 23:01N 39°34' E 002°38'0 0.0
2018-Jun-15 22:31N 39°34' E 002°38'0 0.0
2018-Jun-15 22:01N 39°34' E 002°38'0 0.0
2018-Jun-15 21:31N 39°34' E 002°38'0 0.0
2018-Jun-15 21:00N 39°34' E 002°38'0 0.0
2018-Jun-15 20:30N 39°34' E 002°38'0 0.0
2018-Jun-15 20:00N 39°34' E 002°38'0 0.0
2018-Jun-15 19:30N 39°34' E 002°38'0 0.0
2018-Jun-15 19:00N 39°34' E 002°38'0 0.0
2018-Jun-15 18:30N 39°34' E 002°38'0 0.0
2018-Jun-15 18:00N 39°34' E 002°38'0 0.0
2018-Jun-15 17:30N 39°34' E 002°38'0 0.0
2018-Jun-15 17:00N 39°34' E 002°38'0 0.0
2018-Jun-15 16:30N 39°34' E 002°38'0 0.0
2018-Jun-15 15:57N 39°34' E 002°38'0 0.0
2018-Jun-15 15:30N 39°34' E 002°38'0 0.0
2018-Jun-15 15:00N 39°34' E 002°38'0 0.0
2018-Jun-15 14:30N 39°34' E 002°38'0 0.0
2018-Jun-15 13:59N 39°34' E 002°38'0 0.0
2018-Jun-15 13:29N 39°34' E 002°38'0 0.0
2018-Jun-15 12:59N 39°34' E 002°38'0 0.0
2018-Jun-15 11:56N 39°34' E 002°38'0 0.0
2018-Jun-15 11:29N 39°34' E 002°38'0 0.0
2018-Jun-15 10:59N 39°34' E 002°38'0 0.0
2018-Jun-15 10:29N 39°34' E 002°38'0 0.0
2018-Jun-15 09:59N 39°34' E 002°38'0 0.0
2018-Jun-15 09:29N 39°34' E 002°38'0 0.0
2018-Jun-15 08:59N 39°34' E 002°38'0 0.0
2018-Jun-15 08:29N 39°34' E 002°38'0 0.0
2018-Jun-15 07:59N 39°34' E 002°38'0 0.0
2018-Jun-15 07:29N 39°34' E 002°38'0 0.0
2018-Jun-15 06:59N 39°34' E 002°38'0 0.0
2018-Jun-15 06:23N 39°34' E 002°38'0 0.0
2018-Jun-15 05:59N 39°34' E 002°38'0 0.0
2018-Jun-15 05:29N 39°34' E 002°38'0 0.0
2018-Jun-15 04:59N 39°34' E 002°38'0 0.0
2018-Jun-15 04:28N 39°34' E 002°38'0 0.0
2018-Jun-15 03:58N 39°34' E 002°38'0 0.0
2018-Jun-15 03:28N 39°34' E 002°38'0 0.0
2018-Jun-15 02:58N 39°34' E 002°38'0 0.0
2018-Jun-15 02:25N 39°34' E 002°38'0 0.0
2018-Jun-15 01:58N 39°34' E 002°38'0 0.0
2018-Jun-15 01:28N 39°34' E 002°38'0 0.0
2018-Jun-15 00:58N 39°34' E 002°38'0 0.0
2018-Jun-15 00:28N 39°34' E 002°38'0 0.0
2018-Jun-14 23:58N 39°34' E 002°38'0 0.0
2018-Jun-14 23:28N 39°34' E 002°38'0 0.0
2018-Jun-14 22:58N 39°34' E 002°38'0 0.0
2018-Jun-14 22:28N 39°34' E 002°38'0 0.0
2018-Jun-14 21:58N 39°34' E 002°38'0 0.0
2018-Jun-14 21:28N 39°34' E 002°38'0 0.0
2018-Jun-14 20:58N 39°34' E 002°38'0 0.0
2018-Jun-14 20:28N 39°34' E 002°38'0 0.0
2018-Jun-14 19:58N 39°34' E 002°38'0 0.0
2018-Jun-14 19:28N 39°34' E 002°38'0 0.0
2018-Jun-14 18:58N 39°34' E 002°38'0 0.0
2018-Jun-14 18:28N 39°34' E 002°38'0 0.0
2018-Jun-14 17:58N 39°34' E 002°38'0 0.0
2018-Jun-14 17:28N 39°34' E 002°38'0 0.0
2018-Jun-14 16:58N 39°34' E 002°38'0 0.0
2018-Jun-14 16:25N 39°34' E 002°38'0 0.0
2018-Jun-14 15:58N 39°34' E 002°38'0 0.0
2018-Jun-14 15:28N 39°34' E 002°38'0 0.0
2018-Jun-14 14:58N 39°34' E 002°38'0 0.0
2018-Jun-14 14:28N 39°34' E 002°38'0 0.0
2018-Jun-14 13:58N 39°34' E 002°38'0 0.0
2018-Jun-14 13:28N 39°34' E 002°38'0 0.0
2018-Jun-14 12:58N 39°34' E 002°38'0 0.0
2018-Jun-14 12:28N 39°34' E 002°38'0 0.0
2018-Jun-14 11:58N 39°34' E 002°38'0 0.0
2018-Jun-14 11:30N 39°34' E 002°38'0 0.0
2018-Jun-14 11:00N 39°34' E 002°38'0 0.0
2018-Jun-14 10:30N 39°34' E 002°38'0 0.0
2018-Jun-14 10:00N 39°34' E 002°38'0 0.0
2018-Jun-14 09:30N 39°34' E 002°38'0 0.0
2018-Jun-14 09:00N 39°34' E 002°38'0 0.0
2018-Jun-14 08:30N 39°34' E 002°38'0 0.0
2018-Jun-14 08:00N 39°34' E 002°38'0 0.0
2018-Jun-14 07:30N 39°34' E 002°38'0 0.0
2018-Jun-14 07:00N 39°34' E 002°38'0 0.0
2018-Jun-14 06:30N 39°34' E 002°38'0 0.0
2018-Jun-14 06:00N 39°34' E 002°38'0 0.0
2018-Jun-14 05:30N 39°34' E 002°38'0 0.0
2018-Jun-14 04:59N 39°34' E 002°38'0 0.0
2018-Jun-14 04:29N 39°34' E 002°38'0 0.0
2018-Jun-14 03:59N 39°34' E 002°38'0 0.0
2018-Jun-14 03:29N 39°34' E 002°38'0 0.0
2018-Jun-14 03:00N 39°34' E 002°38'0 0.0
2018-Jun-14 02:29N 39°34' E 002°38'0 0.0
2018-Jun-14 01:59N 39°34' E 002°38'0 0.0
2018-Jun-14 01:29N 39°34' E 002°38'0 0.0
2018-Jun-14 00:59N 39°34' E 002°38'0 0.0
2018-Jun-14 00:29N 39°34' E 002°38'0 0.0
2018-Jun-13 23:59N 39°34' E 002°38'0 0.0
2018-Jun-13 23:29N 39°34' E 002°38'0 0.0
2018-Jun-13 22:59N 39°34' E 002°38'0 0.0
2018-Jun-13 22:29N 39°34' E 002°38'0 0.0
2018-Jun-13 21:59N 39°34' E 002°38'0 0.0
2018-Jun-13 21:29N 39°34' E 002°38'0 0.0
2018-Jun-13 20:59N 39°34' E 002°38'0 0.0
2018-Jun-13 20:29N 39°34' E 002°38'0 0.0
2018-Jun-13 19:59N 39°34' E 002°38'0 0.0
2018-Jun-13 19:29N 39°34' E 002°38'0 0.0
2018-Jun-13 18:59N 39°34' E 002°38'0 0.0
2018-Jun-13 18:29N 39°34' E 002°38'0 0.0
2018-Jun-13 17:59N 39°34' E 002°38'0 0.0
2018-Jun-13 17:29N 39°34' E 002°38'0 0.0
2018-Jun-13 16:59N 39°34' E 002°38'0 0.0
2018-Jun-13 16:30N 39°34' E 002°38'0 0.0
2018-Jun-13 16:00N 39°34' E 002°38'0 0.0
2018-Jun-13 15:29N 39°34' E 002°38'0 0.0
2018-Jun-13 14:59N 39°34' E 002°38'0 0.0
2018-Jun-13 14:29N 39°34' E 002°38'0 0.0
2018-Jun-13 13:59N 39°34' E 002°38'0 0.0
2018-Jun-13 13:29N 39°34' E 002°38'0 0.0
2018-Jun-13 13:00N 39°34' E 002°38'0 0.0
2018-Jun-13 12:30N 39°34' E 002°38'0 0.0
2018-Jun-13 11:59N 39°34' E 002°38'0 0.0
2018-Jun-13 11:29N 39°34' E 002°38'0 0.0
2018-Jun-13 11:00N 39°34' E 002°38'0 0.0
2018-Jun-13 10:30N 39°34' E 002°38'0 0.0
2018-Jun-13 09:59N 39°34' E 002°38'0 0.0
2018-Jun-13 09:29N 39°34' E 002°38'0 0.0
2018-Jun-13 08:59N 39°34' E 002°38'0 0.0
2018-Jun-13 08:29N 39°34' E 002°38'0 0.0
2018-Jun-13 07:59N 39°34' E 002°38'0 0.0
2018-Jun-13 07:29N 39°34' E 002°38'0 0.0
2018-Jun-13 06:59N 39°34' E 002°38'0 0.0
2018-Jun-13 06:29N 39°34' E 002°38'0 0.0
2018-Jun-13 05:59N 39°34' E 002°38'0 0.0
2018-Jun-13 05:29N 39°34' E 002°38'0 0.0
2018-Jun-13 04:59N 39°34' E 002°38'0 0.0
2018-Jun-13 04:29N 39°34' E 002°38'0 0.0
2018-Jun-13 03:59N 39°34' E 002°38'0 0.0
2018-Jun-13 03:29N 39°34' E 002°38'0 0.0
2018-Jun-13 02:59N 39°34' E 002°38'0 0.0
2018-Jun-13 02:29N 39°34' E 002°38'0 0.0
2018-Jun-13 01:59N 39°34' E 002°38'0 0.0
2018-Jun-13 01:29N 39°34' E 002°38'0 0.0
2018-Jun-13 00:59N 39°34' E 002°38'0 0.0
2018-Jun-13 00:29N 39°34' E 002°38'0 0.0
2018-Jun-12 23:59N 39°34' E 002°38'0 0.0
2018-Jun-12 23:29N 39°34' E 002°38'0 0.0
2018-Jun-12 22:59N 39°34' E 002°38'0 0.0
2018-Jun-12 22:29N 39°34' E 002°38'0 0.0
2018-Jun-12 21:59N 39°34' E 002°38'0 0.0
2018-Jun-12 21:29N 39°34' E 002°38'0 0.0
2018-Jun-12 20:59N 39°34' E 002°38'0 0.0
2018-Jun-12 20:29N 39°34' E 002°38'0 0.0
2018-Jun-12 19:59N 39°34' E 002°38'0 0.0
2018-Jun-12 19:29N 39°34' E 002°38'0 0.0
2018-Jun-12 18:47N 39°34' E 002°38'0 0.0
2018-Jun-12 18:29N 39°34' E 002°38'0 0.0
2018-Jun-12 17:59N 39°34' E 002°38'0 0.0
2018-Jun-12 17:29N 39°34' E 002°38'0 0.0
2018-Jun-12 16:58N 39°34' E 002°38'0 0.0
2018-Jun-12 16:28N 39°34' E 002°38'0 0.0
2018-Jun-12 15:58N 39°34' E 002°38'0 0.0
2018-Jun-12 15:28N 39°34' E 002°38'0 0.0
2018-Jun-12 14:57N 39°34' E 002°38'0 0.0
2018-Jun-12 14:29N 39°34' E 002°38'0 0.0
2018-Jun-12 13:59N 39°34' E 002°38'0 0.0
2018-Jun-12 13:29N 39°34' E 002°38'0 0.0
2018-Jun-12 12:59N 39°34' E 002°38'0 0.0
2018-Jun-12 12:29N 39°34' E 002°38'0 0.0
2018-Jun-12 11:59N 39°34' E 002°38'0 0.0
2018-Jun-12 11:29N 39°34' E 002°38'0 0.0
2018-Jun-12 10:59N 39°34' E 002°38'0 0.0
2018-Jun-12 10:29N 39°34' E 002°38'0 0.0
2018-Jun-12 09:59N 39°34' E 002°38'0 0.0
2018-Jun-12 09:29N 39°34' E 002°38'0 0.0
2018-Jun-12 08:59N 39°34' E 002°38'0 0.0
2018-Jun-12 08:29N 39°34' E 002°38'0 0.0
2018-Jun-12 07:59N 39°34' E 002°38'0 0.0
2018-Jun-12 07:29N 39°34' E 002°38'0 0.0
2018-Jun-12 06:59N 39°34' E 002°38'0 0.0
2018-Jun-12 06:29N 39°34' E 002°38'0 0.0
2018-Jun-12 05:59N 39°34' E 002°38'0 0.0
2018-Jun-12 05:29N 39°34' E 002°38'0 0.0
2018-Jun-12 04:59N 39°34' E 002°38'0 0.0
2018-Jun-12 04:29N 39°34' E 002°38'0 0.0
2018-Jun-12 03:59N 39°34' E 002°38'0 0.0
2018-Jun-12 03:29N 39°34' E 002°38'0 0.0
2018-Jun-12 02:59N 39°34' E 002°38'0 0.0
2018-Jun-12 02:29N 39°34' E 002°38'0 0.0
2018-Jun-12 01:59N 39°34' E 002°38'0 0.0
2018-Jun-12 01:29N 39°34' E 002°38'0 0.0
2018-Jun-12 00:59N 39°34' E 002°38'0 0.0
2018-Jun-12 00:29N 39°34' E 002°38'0 0.0
2018-Jun-11 23:59N 39°34' E 002°38'0 0.0
2018-Jun-11 23:29N 39°34' E 002°38'0 0.0
2018-Jun-11 22:59N 39°34' E 002°38'0 0.0
2018-Jun-11 22:29N 39°34' E 002°38'0 0.0
2018-Jun-11 21:59N 39°34' E 002°38'0 0.0
2018-Jun-11 21:29N 39°34' E 002°38'0 0.0
2018-Jun-11 20:56N 39°34' E 002°38'0 0.0
2018-Jun-11 20:29N 39°34' E 002°38'0 0.0
2018-Jun-11 19:59N 39°34' E 002°38'0 0.0
2018-Jun-11 19:29N 39°34' E 002°38'0 0.0
2018-Jun-11 18:59N 39°34' E 002°38'0 0.0
2018-Jun-11 18:29N 39°34' E 002°38'0 0.0
2018-Jun-11 17:59N 39°34' E 002°38'0 0.0
2018-Jun-11 17:29N 39°34' E 002°38'0 0.0
2018-Jun-11 16:59N 39°34' E 002°38'0 0.0
2018-Jun-11 16:29N 39°34' E 002°38'0 0.0
2018-Jun-11 15:59N 39°34' E 002°38'0 0.0
2018-Jun-11 15:29N 39°34' E 002°38'0 0.0
2018-Jun-11 14:59N 39°34' E 002°38'0 0.0
2018-Jun-11 14:29N 39°34' E 002°38'0 0.0
2018-Jun-11 13:59N 39°34' E 002°38'0 0.0
2018-Jun-11 13:29N 39°34' E 002°38'0 0.0
2018-Jun-11 12:59N 39°34' E 002°38'0 0.0
2018-Jun-11 12:29N 39°34' E 002°38'0 0.0
2018-Jun-11 11:59N 39°34' E 002°38'0 0.0
2018-Jun-11 11:29N 39°34' E 002°38'0 0.0
2018-Jun-11 10:59N 39°34' E 002°38'0 0.0
2018-Jun-11 10:29N 39°34' E 002°38'0 0.0
2018-Jun-11 09:59N 39°34' E 002°38'0 0.0
2018-Jun-11 09:29N 39°34' E 002°38'0 0.0
2018-Jun-11 08:59N 39°34' E 002°38'0 0.0
2018-Jun-11 08:29N 39°34' E 002°38'0 0.0
2018-Jun-11 08:00N 39°34' E 002°38'0 0.0
2018-Jun-11 07:21N 39°34' E 002°38'0 0.0
2018-Jun-11 07:00N 39°34' E 002°38'0 0.0
2018-Jun-11 06:30N 39°34' E 002°38'0 0.0
2018-Jun-11 06:00N 39°34' E 002°38'0 0.0
2018-Jun-11 05:30N 39°34' E 002°38'0 0.0
2018-Jun-11 05:00N 39°34' E 002°38'0 0.0
2018-Jun-11 04:30N 39°34' E 002°38'0 0.0
2018-Jun-11 04:00N 39°34' E 002°38'0 0.0
2018-Jun-11 03:30N 39°34' E 002°38'0 0.0
2018-Jun-11 03:00N 39°34' E 002°38'0 0.0
2018-Jun-11 02:30N 39°34' E 002°38'0 0.0
2018-Jun-11 02:00N 39°34' E 002°38'0 0.0
2018-Jun-11 01:30N 39°34' E 002°38'0 0.0
2018-Jun-11 01:00N 39°34' E 002°38'0 0.0
2018-Jun-11 00:30N 39°34' E 002°38'0 0.0
2018-Jun-11 00:00N 39°34' E 002°38'0 0.0
2018-Jun-10 23:30N 39°34' E 002°38'0 0.0
2018-Jun-10 23:00N 39°34' E 002°38'0 0.0
2018-Jun-10 22:30N 39°34' E 002°38'0 0.0
2018-Jun-10 22:00N 39°34' E 002°38'0 0.0
2018-Jun-10 21:30N 39°34' E 002°38'0 0.0
2018-Jun-10 21:00N 39°34' E 002°38'0 0.0
2018-Jun-10 20:30N 39°34' E 002°38'0 0.0
2018-Jun-10 20:00N 39°34' E 002°38'0 0.0
2018-Jun-10 19:30N 39°34' E 002°38'0 0.0
2018-Jun-10 19:00N 39°34' E 002°38'0 0.0
2018-Jun-10 18:27N 39°34' E 002°38'0 0.0
2018-Jun-10 18:00N 39°34' E 002°38'0 0.0
2018-Jun-10 17:30N 39°34' E 002°38'0 0.0
2018-Jun-10 17:00N 39°34' E 002°38'0 0.0
2018-Jun-10 16:30N 39°34' E 002°38'0 0.0
2018-Jun-10 16:00N 39°34' E 002°38'0 0.0
2018-Jun-10 15:30N 39°34' E 002°38'0 0.0
2018-Jun-10 15:00N 39°34' E 002°38'0 0.0
2018-Jun-10 14:30N 39°34' E 002°38'  

Dump ship's entire track history